createdAt,value
2022-10-03T00:00:15.335Z,6.20
2022-10-03T00:03:13.717Z,6.20
2022-10-03T00:21:45.323Z,6.20
2022-10-03T00:29:58.478Z,6.20
2022-10-03T00:33:12.273Z,6.20
2022-10-03T00:36:03.010Z,6.10
2022-10-03T00:44:46.617Z,6.10
2022-10-03T00:47:25.304Z,6.80
2022-10-03T00:50:20.321Z,6.10
2022-10-03T00:52:59.711Z,6.10
2022-10-03T00:55:47.994Z,6.10
2022-10-03T00:58:41.864Z,6.00
2022-10-03T01:01:45.732Z,6.00
2022-10-03T01:04:47.070Z,6.00
2022-10-03T01:07:51.145Z,6.00
2022-10-03T01:13:28.280Z,6.00
2022-10-03T01:19:04.902Z,5.90
2022-10-03T01:32:54.147Z,6.00
2022-10-03T01:38:34.225Z,5.50
2022-10-03T01:51:46.052Z,5.90
2022-10-03T01:54:40.268Z,5.80
2022-10-03T02:05:15.557Z,5.90
2022-10-03T02:10:56.723Z,5.90
2022-10-03T02:13:40.096Z,5.90
2022-10-03T02:16:46.145Z,5.90
2022-10-03T02:22:00.754Z,5.90
2022-10-03T02:29:45.088Z,5.90
2022-10-03T02:40:26.384Z,5.90
2022-10-03T02:51:21.908Z,5.90
2022-10-03T03:10:05.832Z,5.80
2022-10-03T03:13:04.623Z,5.90
2022-10-03T03:29:30.925Z,5.80
2022-10-03T03:32:20.350Z,5.80
2022-10-03T03:37:27.754Z,5.80
2022-10-03T03:45:43.504Z,5.80
2022-10-03T03:56:36.680Z,5.80
2022-10-03T03:59:30.559Z,5.80
2022-10-03T04:05:12.831Z,5.70
2022-10-03T04:07:58.870Z,5.70
2022-10-03T04:13:19.792Z,5.70
2022-10-03T04:24:14.509Z,5.60
2022-10-03T04:29:40.686Z,5.60
2022-10-03T04:32:29.737Z,5.60
2022-10-03T04:43:34.998Z,5.10
2022-10-03T04:48:58.914Z,5.60
2022-10-03T04:51:32.546Z,5.50
2022-10-03T04:54:18.668Z,5.60
2022-10-03T04:57:00.115Z,5.60
2022-10-03T05:04:43.610Z,5.60
2022-10-03T05:15:42.402Z,5.70
2022-10-03T05:23:55.350Z,5.70
2022-10-03T05:26:50.571Z,5.70
2022-10-03T05:39:57.245Z,5.80
2022-10-03T05:50:48.646Z,5.90
2022-10-03T05:53:29.980Z,5.90
2022-10-03T05:56:26.500Z,5.60
2022-10-03T05:59:24.293Z,5.90
2022-10-03T06:02:22.297Z,5.90
2022-10-03T06:05:08.453Z,5.90
2022-10-03T06:08:13.186Z,6.00
2022-10-03T06:10:53.751Z,5.90
2022-10-03T06:13:52.098Z,5.10
2022-10-03T06:16:43.718Z,5.90
2022-10-03T06:22:34.943Z,6.10
2022-10-03T06:25:24.834Z,6.00
2022-10-03T06:28:12.209Z,6.00
2022-10-03T06:33:34.453Z,6.00
2022-10-03T06:36:27.298Z,6.00
2022-10-03T06:39:22.522Z,6.00
2022-10-03T06:42:24.236Z,5.90
2022-10-03T06:45:38.241Z,6.10
2022-10-03T06:48:17.254Z,6.00
2022-10-03T06:51:07.728Z,6.00
2022-10-03T06:53:57.836Z,6.50
2022-10-03T07:02:17.560Z,6.10
2022-10-03T07:05:14.642Z,6.10
2022-10-03T07:08:16.102Z,5.90
2022-10-03T07:13:33.594Z,6.00
2022-10-03T07:16:31.363Z,6.00
2022-10-03T07:24:48.301Z,4.80
2022-10-03T07:29:54.885Z,6.10
2022-10-03T07:35:12.420Z,6.10
2022-10-03T07:38:25.939Z,6.10
2022-10-03T07:41:14.787Z,6.00
2022-10-03T07:44:10.183Z,6.10
2022-10-03T07:52:11.477Z,6.00
2022-10-03T07:54:42.088Z,6.00
2022-10-03T07:59:50.225Z,6.00
2022-10-03T08:02:56.164Z,5.70
2022-10-03T08:06:05.658Z,6.00
2022-10-03T08:08:58.562Z,6.00
2022-10-03T08:15:35.012Z,6.10
2022-10-03T08:20:56.635Z,6.40
2022-10-03T08:26:20.502Z,6.10
2022-10-03T08:29:28.224Z,8.60
2022-10-03T08:32:15.733Z,6.10
2022-10-03T08:42:47.886Z,6.10
2022-10-03T08:45:47.351Z,6.10
2022-10-03T08:48:44.981Z,6.00
2022-10-03T08:51:37.079Z,6.00
2022-10-03T08:54:16.630Z,6.10
2022-10-03T08:59:26.735Z,6.00
2022-10-03T09:02:15.957Z,6.00
2022-10-03T09:04:46.682Z,6.10
2022-10-03T09:07:42.956Z,5.90
2022-10-03T09:11:04.208Z,6.00
2022-10-03T09:14:13.208Z,6.00
2022-10-03T09:17:03.261Z,6.00
2022-10-03T09:19:41.809Z,5.90
2022-10-03T09:22:37.283Z,6.00
2022-10-03T09:25:29.879Z,5.90
2022-10-03T09:33:58.855Z,6.00
2022-10-03T09:37:04.854Z,6.00
2022-10-03T09:39:57.817Z,5.90
2022-10-03T09:43:11.850Z,5.90
2022-10-03T09:45:57.556Z,6.00
2022-10-03T09:48:45.040Z,5.90
2022-10-03T09:51:39.989Z,5.90
2022-10-03T09:54:26.801Z,5.90
2022-10-03T09:57:22.734Z,5.90
2022-10-03T10:00:36.868Z,5.90
2022-10-03T10:03:23.268Z,5.90
2022-10-03T10:06:03.114Z,5.90
2022-10-03T10:08:55.411Z,5.80
2022-10-03T10:19:43.694Z,5.80
2022-10-03T10:30:11.859Z,5.80
2022-10-03T10:33:13.576Z,5.60
2022-10-03T10:36:22.683Z,5.60
2022-10-03T10:41:59.656Z,5.60
2022-10-03T10:45:04.306Z,5.40
2022-10-03T10:50:18.399Z,5.50
2022-10-03T10:53:10.116Z,5.50
2022-10-03T10:56:09.687Z,5.50
2022-10-03T10:59:16.309Z,5.70
2022-10-03T11:02:05.628Z,5.60
2022-10-03T11:05:29.671Z,5.50
2022-10-03T11:08:18.098Z,5.60
2022-10-03T11:11:10.290Z,5.80
2022-10-03T11:13:59.590Z,5.60
2022-10-03T11:16:48.422Z,5.50
2022-10-03T11:22:34.715Z,5.50
2022-10-03T11:25:20.962Z,5.40
2022-10-03T11:30:26.776Z,5.40
2022-10-03T11:35:48.689Z,5.40
2022-10-03T11:40:59.416Z,5.20
2022-10-03T11:46:26.739Z,5.60
2022-10-03T11:49:16.599Z,4.50
2022-10-03T11:52:31.545Z,5.40
2022-10-03T11:55:30.042Z,5.40
2022-10-03T11:58:36.862Z,5.30
2022-10-03T12:01:41.986Z,5.60
2022-10-03T12:04:34.733Z,5.30
2022-10-03T12:07:36.243Z,5.30
2022-10-03T12:12:51.518Z,5.30
2022-10-03T12:15:40.906Z,5.30
2022-10-03T12:18:34.565Z,5.30
2022-10-03T12:21:24.630Z,5.30
2022-10-03T12:23:59.885Z,5.30
2022-10-03T12:26:43.467Z,5.30
2022-10-03T12:29:18.470Z,5.30
2022-10-03T12:32:17.676Z,5.30
2022-10-03T12:35:20.130Z,5.30
2022-10-03T12:38:17.695Z,5.30
2022-10-03T12:40:55.243Z,5.30
2022-10-03T12:43:50.241Z,5.80
2022-10-03T12:46:57.788Z,5.60
2022-10-03T12:52:02.217Z,5.30
2022-10-03T12:57:22.988Z,5.40
2022-10-03T13:00:23.179Z,5.40
2022-10-03T13:03:20.098Z,5.40
2022-10-03T13:06:12.859Z,5.40
2022-10-03T13:08:49.528Z,5.50
2022-10-03T13:11:48.838Z,5.60
2022-10-03T13:17:03.262Z,5.50
2022-10-03T13:19:51.644Z,5.50
2022-10-03T13:25:24.938Z,5.50
2022-10-03T13:28:25.216Z,5.50
2022-10-03T13:31:16.140Z,5.50
2022-10-03T13:33:56.067Z,5.50
2022-10-03T13:36:55.080Z,5.50
2022-10-03T13:42:33.877Z,5.50
2022-10-03T13:45:28.866Z,5.40
2022-10-03T13:48:04.946Z,5.30
2022-10-03T13:50:58.415Z,5.60
2022-10-03T13:54:00.178Z,5.60
2022-10-03T13:56:52.149Z,5.30
2022-10-03T13:59:25.179Z,5.60
2022-10-03T14:04:56.893Z,5.60
2022-10-03T14:07:48.398Z,5.70
2022-10-03T14:10:35.934Z,5.60
2022-10-03T14:13:16.245Z,5.80
2022-10-03T14:16:16.898Z,5.60
2022-10-03T14:18:57.493Z,5.60
2022-10-03T14:22:01.014Z,5.50
2022-10-03T14:27:28.704Z,5.10
2022-10-03T14:30:19.836Z,5.60
2022-10-03T14:33:23.815Z,5.60
2022-10-03T14:36:12.920Z,5.60
2022-10-03T14:39:03.740Z,5.50
2022-10-03T14:44:13.409Z,5.50
2022-10-03T14:47:00.832Z,5.50
2022-10-03T14:49:57.875Z,5.50
2022-10-03T14:52:27.930Z,5.40
2022-10-03T14:54:58.969Z,5.50
2022-10-03T14:57:53.199Z,5.40
2022-10-03T15:02:57.117Z,5.40
2022-10-03T15:06:02.637Z,5.30
2022-10-03T15:08:57.966Z,5.30
2022-10-03T15:11:32.441Z,5.30
2022-10-03T15:14:09.270Z,5.30
2022-10-03T15:16:49.635Z,5.30
2022-10-03T15:19:26.363Z,5.30
2022-10-03T15:24:28.267Z,5.30
2022-10-03T15:27:01.785Z,5.10
2022-10-03T15:31:59.545Z,4.80
2022-10-03T15:34:38.895Z,5.30
2022-10-03T15:37:19.263Z,5.30
2022-10-03T15:39:48.902Z,5.30
2022-10-03T15:42:21.054Z,5.20
2022-10-03T15:50:29.014Z,5.70
2022-10-03T15:53:34.490Z,5.20
2022-10-03T15:56:22.373Z,5.20
2022-10-03T15:58:56.337Z,5.20
2022-10-03T16:01:27.731Z,5.20
2022-10-03T16:06:48.166Z,5.10
2022-10-03T16:09:15.469Z,5.10
2022-10-03T16:11:56.253Z,5.10
2022-10-03T16:14:42.444Z,5.10
2022-10-03T16:17:29.137Z,5.10
2022-10-03T16:20:06.812Z,4.70
2022-10-03T16:22:53.065Z,5.10
2022-10-03T16:25:26.775Z,5.40
2022-10-03T16:28:12.365Z,5.10
2022-10-03T16:30:56.842Z,5.10
2022-10-03T16:33:57.911Z,5.10
2022-10-03T16:36:25.969Z,5.10
2022-10-03T16:39:02.072Z,5.10
2022-10-03T16:41:35.204Z,5.70
2022-10-03T16:44:19.092Z,5.10
2022-10-03T16:49:44.819Z,5.00
2022-10-03T16:52:21.528Z,5.10
2022-10-03T16:57:28.090Z,5.10
2022-10-03T17:02:28.887Z,5.20
2022-10-03T17:05:05.178Z,5.20
2022-10-03T17:07:49.938Z,5.20
2022-10-03T17:10:38.202Z,5.20
2022-10-03T17:16:02.131Z,5.20
2022-10-03T17:18:40.739Z,5.20
2022-10-03T17:24:34.566Z,5.30
2022-10-03T17:27:09.257Z,5.10
2022-10-03T17:29:50.787Z,5.20
2022-10-03T17:32:25.364Z,5.10
2022-10-03T17:35:17.541Z,5.10
2022-10-03T17:40:29.131Z,5.10
2022-10-03T17:45:50.378Z,5.10
2022-10-03T17:48:20.741Z,5.10
2022-10-03T17:51:14.168Z,5.20
2022-10-03T17:53:48.104Z,5.20
2022-10-03T17:56:21.165Z,5.10
2022-10-03T17:58:52.277Z,4.50
2022-10-03T18:01:25.482Z,5.10
2022-10-03T18:03:58.886Z,4.60
2022-10-03T18:06:54.973Z,5.10
2022-10-03T18:09:40.731Z,5.10
2022-10-03T18:12:17.007Z,5.10
2022-10-03T18:14:47.964Z,5.10
2022-10-03T18:20:21.570Z,5.00
2022-10-03T18:22:55.872Z,5.20
2022-10-03T18:26:18.474Z,5.10
2022-10-03T18:29:18.800Z,5.40
2022-10-03T18:31:57.622Z,5.10
2022-10-03T18:34:34.575Z,5.10
2022-10-03T18:37:26.904Z,5.20
2022-10-03T18:39:57.075Z,5.20
2022-10-03T18:42:30.071Z,5.20
2022-10-03T18:47:41.480Z,5.20
2022-10-03T18:50:34.134Z,5.20
2022-10-03T18:53:27.042Z,5.20
2022-10-03T18:56:13.417Z,5.20
2022-10-03T18:58:51.599Z,5.20
2022-10-03T19:01:34.614Z,5.30
2022-10-03T19:04:08.788Z,5.30
2022-10-03T19:06:41.416Z,5.30
2022-10-03T19:11:50.505Z,5.30
2022-10-03T19:14:34.588Z,5.30
2022-10-03T19:17:32.106Z,5.30
2022-10-03T19:20:11.338Z,5.30
2022-10-03T19:22:41.153Z,5.40
2022-10-03T19:25:19.182Z,5.40
2022-10-03T19:27:52.424Z,5.40
2022-10-03T19:30:28.148Z,5.40
2022-10-03T19:33:09.435Z,5.40
2022-10-03T19:35:43.172Z,5.50
2022-10-03T19:38:21.193Z,5.40
2022-10-03T19:41:06.967Z,5.50
2022-10-03T19:43:42.118Z,5.50
2022-10-03T19:49:21.356Z,5.50
2022-10-03T19:54:43.709Z,5.50
2022-10-03T19:57:20.419Z,5.50
2022-10-03T20:02:24.837Z,5.50
2022-10-03T20:07:41.523Z,5.50
2022-10-03T20:10:47.517Z,5.50
2022-10-03T20:15:48.907Z,5.50
2022-10-03T20:18:23.636Z,5.50
2022-10-03T20:20:57.094Z,5.60
2022-10-03T20:23:27.764Z,5.50
2022-10-03T20:29:02.623Z,5.60
2022-10-03T20:31:32.600Z,5.60
2022-10-03T20:34:01.466Z,5.50
2022-10-03T20:36:32.686Z,5.60
2022-10-03T20:39:05.449Z,5.50
2022-10-03T20:42:14.850Z,5.60
2022-10-03T20:45:02.571Z,5.50
2022-10-03T20:47:49.462Z,5.60
2022-10-03T20:50:31.993Z,5.60
2022-10-03T20:53:01.898Z,5.60
2022-10-03T20:55:38.383Z,6.10
2022-10-03T20:58:22.442Z,5.60
2022-10-03T21:00:59.548Z,5.50
2022-10-03T21:03:34.371Z,5.50
2022-10-03T21:06:05.080Z,5.60
2022-10-03T21:08:38.567Z,5.60
2022-10-03T21:13:49.874Z,5.60
2022-10-03T21:16:21.907Z,5.60
2022-10-03T21:18:51.731Z,5.60
2022-10-03T21:21:33.095Z,6.30
2022-10-03T21:24:15.256Z,5.60
2022-10-03T21:26:49.148Z,5.50
2022-10-03T21:29:26.841Z,5.50
2022-10-03T21:31:57.490Z,5.60
2022-10-03T21:34:32.384Z,5.50
2022-10-03T21:37:15.088Z,5.50
2022-10-03T21:39:55.228Z,5.50
2022-10-03T21:42:36.153Z,5.50
2022-10-03T21:45:12.378Z,5.50
2022-10-03T21:47:39.437Z,5.50
2022-10-03T21:50:19.602Z,5.50
2022-10-03T21:53:21.323Z,5.50
2022-10-03T21:58:39.381Z,5.50
2022-10-03T22:03:59.473Z,5.60
2022-10-03T22:06:43.651Z,5.60
2022-10-03T22:09:15.512Z,5.60
2022-10-03T22:11:53.766Z,5.60
2022-10-03T22:17:00.085Z,5.50
2022-10-03T22:19:36.352Z,5.70
2022-10-03T22:22:06.665Z,5.60
2022-10-03T22:25:00.874Z,5.70
2022-10-03T22:27:38.913Z,5.70
2022-10-03T22:30:10.411Z,5.20
2022-10-03T22:33:14.964Z,5.30
2022-10-03T22:35:51.397Z,5.60
2022-10-03T22:38:24.738Z,5.60
2022-10-03T22:40:54.614Z,5.60
2022-10-03T22:43:23.724Z,5.70
2022-10-03T22:45:53.381Z,5.80
2022-10-03T22:48:30.222Z,5.60
2022-10-03T22:50:58.276Z,5.70
2022-10-03T22:53:30.347Z,5.60
2022-10-03T22:55:59.775Z,5.60
2022-10-03T22:58:30.961Z,5.70
2022-10-03T23:01:03.217Z,5.70
2022-10-03T23:03:34.288Z,5.70
2022-10-03T23:06:24.772Z,5.70
2022-10-03T23:09:04.700Z,5.70
2022-10-03T23:11:34.797Z,5.70
2022-10-03T23:14:08.759Z,5.70
2022-10-03T23:17:05.495Z,5.70
2022-10-03T23:20:06.341Z,5.70
2022-10-03T23:22:37.399Z,5.70
2022-10-03T23:25:18.077Z,5.70
2022-10-03T23:28:03.567Z,5.70
2022-10-03T23:30:34.124Z,5.70
2022-10-03T23:33:01.732Z,5.70
2022-10-03T23:35:32.219Z,5.70
2022-10-03T23:38:00.889Z,5.70
2022-10-03T23:43:18.843Z,5.70
2022-10-03T23:45:47.052Z,5.70
2022-10-03T23:48:18.661Z,5.70
2022-10-03T23:51:01.655Z,5.70
2022-10-03T23:56:02.365Z,5.70
2022-10-03T23:58:35.241Z,5.40
